De Kooy, Netherlands

7:18 PM CEST on October 15, 2018 (GMT +0200)
De Kooy Navy

Weather History for EHKD - May, 2018

Change the Weather History Date:

Wednesday, May 16, 2018

  Actual Average Record
Temperature  
Mean Temperature 54 °F -  
Max Temperature 60 °F 61 °F 78 °F (2000)
Min Temperature 49 °F 50 °F 39 °F (2013)
Degree Days  
Heating Degree Days 10    
Growing Degree Days 4 (Base 50)    
Moisture  
Dew Point 49 °F    
Average Humidity 80    
Maximum Humidity 94    
Minimum Humidity 66    
Precipitation  
Precipitation 0.00 in 0.06 in - ()
Sea Level Pressure  
Sea Level Pressure 30.13 in    
Wind  
Wind Speed 12 mph ()    
Max Wind Speed 22 mph    
Max Gust Speed 33 mph    
Visibility 6.4 miles    
Events Rain    
Averages and records for this station are not official NWS values.
T = Trace of Precipitation, MM = Missing Value Source: Averaged Metar Reports

Daily Weather History Graph

Daily Weather History Graph

Search for Another Location

Airport or City:

Astronomy

May. 16, 2018 Rise Set
Actual Time 5:41 AM CEST 9:33 PM CEST
Civil Twilight 4:57 AM CEST 10:17 PM CEST
Nautical Twilight 3:56 AM CEST 11:20 PM CEST
Astronomical Twilight 1:49 AM CEST 1:04 AM CEST
Moon 6:48 AM CEST (5/16) 10:42 PM CEST (5/16)
Length of Visible Light 17h 20m
Length of Day
15h 52m
New Moon, 1% of the Moon is Illuminated
May 16
New Moon
May 22
First Quarter
May 29
Full
Jun 6
Last Quarter
Jun 13
New

Hourly Weather History & Observations

Time (CEST) Temp. Dew Point Humidity Pressure Visibility Wind Dir Wind Speed Gust Speed Precip Events Conditions
12:00 AM 56 °F 53 °F 88% 30.06 in 4 mi North 8.9 mph - -   Mist
12:25 AM 57.2 °F 53.6 °F 88% 30.04 in 4.3 mi North 8.1 mph - N/A   Mist
12:27 AM 57.2 °F 53.6 °F 88% 30.04 in 5.0 mi North 8.1 mph - N/A   Mist
12:55 AM 55.4 °F 51.8 °F 88% 30.04 in 5.6 mi North 8.1 mph - N/A   Mist
1:00 AM 56 °F 52 °F 83% 30.05 in 6 mi North 8.9 mph - -   Partly Cloudy
1:25 AM 57.2 °F 51.8 °F 82% 30.04 in 6.2 mi North 8.1 mph - N/A   Unknown
1:55 AM 57.2 °F 50.0 °F 77% 30.04 in 6.2 mi North 9.2 mph - N/A   Unknown
2:00 AM 56 °F 51 °F 77% 30.04 in 8 mi North 8.9 mph - -   Partly Cloudy
2:25 AM 55.4 °F 51.8 °F 88% 30.04 in 6.2 mi North 8.1 mph - N/A   Unknown
2:55 AM 55.4 °F 51.8 °F 88% 30.04 in 5.6 mi North 9.2 mph - N/A   Mist
3:00 AM 56 °F 52 °F 83% 30.05 in 5 mi North 8.9 mph - -   Mist
3:06 AM 55.4 °F 51.8 °F 88% 30.04 in 4.3 mi North 9.2 mph - N/A   Mist
3:25 AM 55.4 °F 51.8 °F 88% 30.04 in 4.3 mi North 9.2 mph - N/A   Scattered Clouds
3:30 AM 55.4 °F 53.6 °F 94% 30.04 in 5.0 mi North 9.2 mph - N/A   Scattered Clouds
3:55 AM 57.2 °F 51.8 °F 82% 30.04 in 5.0 mi North 9.2 mph - N/A   Overcast
4:00 AM 56 °F 53 °F 84% 30.05 in 5 mi North 8.9 mph - -   Mist
4:25 AM 57.2 °F 53.6 °F 88% 30.04 in 5.6 mi North 10.4 mph - N/A   Overcast
4:55 AM 55.4 °F 53.6 °F 94% 30.04 in 5.6 mi North 10.4 mph - N/A   Overcast
5:25 AM 57.2 °F 53.6 °F 88% 30.04 in 6.2 mi North 10.4 mph - N/A   Overcast
5:55 AM 55.4 °F 51.8 °F 88% 30.04 in 6.2 mi North 10.4 mph - N/A   Overcast
6:25 AM 55.4 °F 51.8 °F 88% 30.04 in 6.2 mi North 12.7 mph - N/A   Overcast
6:27 AM 55.4 °F 51.8 °F 88% 30.04 in 6.2 mi North 12.7 mph - N/A   Overcast
6:55 AM 55.4 °F 51.8 °F 88% 30.04 in 6.2 mi North 12.7 mph - N/A   Overcast
7:00 AM 55 °F 52 °F 85% 30.06 in 9 mi North 13.4 mph - -   Overcast
7:25 AM 55.4 °F 51.8 °F 88% 30.04 in 6.2 mi North 10.4 mph - N/A   Overcast
7:55 AM 55.4 °F 51.8 °F 88% 30.06 in 6.2 mi North 13.8 mph - N/A   Overcast
8:00 AM 56 °F 51 °F 79% 30.08 in 9 mi NNE 11.2 mph - -   Partly Cloudy
8:25 AM 55.4 °F 51.8 °F 88% 30.06 in 6.2 mi NNE 12.7 mph - N/A   Overcast
8:55 AM 57.2 °F 51.8 °F 82% 30.06 in 6.2 mi North 13.8 mph - N/A   Overcast
9:00 AM 57 °F 52 °F 78% 30.09 in 10 mi North 11.2 mph - -   Partly Cloudy
9:25 AM 57.2 °F 51.8 °F 82% 30.09 in 6.2 mi NNE 11.5 mph - N/A   Overcast
9:55 AM 57.2 °F 51.8 °F 82% 30.09 in 6.2 mi North 11.5 mph - N/A   Overcast
10:00 AM 57 °F 52 °F 76% 30.11 in 8 mi North 11.2 mph - -   Partly Cloudy
10:25 AM 57.2 °F 51.8 °F 82% 30.09 in 6.2 mi North 13.8 mph - N/A   Overcast
10:55 AM 57.2 °F 51.8 °F 82% 30.09 in 6.2 mi North 13.8 mph - N/A   Overcast
11:00 AM 57 °F 52 °F 76% 30.12 in 9 mi North 13.4 mph - -   Partly Cloudy
11:25 AM 57.2 °F 51.8 °F 82% 30.09 in 6.2 mi NNE 13.8 mph - N/A   Overcast
11:55 AM 57.2 °F 50.0 °F 77% 30.12 in 6.2 mi North 12.7 mph - N/A   Mostly Cloudy
12:00 PM 57 °F 51 °F 72% 30.13 in 7 mi North 13.4 mph - - Rain Rain
12:25 PM 59.0 °F 51.8 °F 77% 30.12 in 6.2 mi North 16.1 mph - N/A   Overcast
12:55 PM 57.2 °F 50.0 °F 77% 30.12 in 6.2 mi NNE 15.0 mph - N/A   Overcast
12:58 PM 59.0 °F 50.0 °F 72% 30.12 in 6.2 mi NNE 15.0 mph - N/A   Overcast
1:00 PM 60 °F 52 °F 66% 30.14 in 9 mi North 15.7 mph - -   Partly Cloudy
1:14 PM 59.0 °F 50.0 °F 72% 30.12 in 6.2 mi North 15.0 mph - N/A   Mostly Cloudy
1:25 PM 60.8 °F 51.8 °F 72% 30.12 in 6.2 mi North 16.1 mph - N/A   Overcast
1:39 PM 59.0 °F 50.0 °F 72% 30.12 in 6.2 mi NNE 17.3 mph 31.1 mph N/A   Overcast
1:55 PM 60.8 °F 51.8 °F 72% 30.12 in 6.2 mi North 17.3 mph - N/A   Overcast
2:00 PM 59 °F 51 °F 66% 30.15 in 12 mi North 15.7 mph - -   Partly Cloudy
2:25 PM 57.2 °F 50.0 °F 77% 30.15 in 6.2 mi North 18.4 mph - N/A   Overcast
2:33 PM 57.2 °F 50.0 °F 77% 30.15 in 6.2 mi North 18.4 mph - N/A   Overcast
2:35 PM 57.2 °F 50.0 °F 77% 30.15 in 6.2 mi North 17.3 mph 28.8 mph N/A   Overcast
2:40 PM 57.2 °F 50.0 °F 77% 30.15 in 6.2 mi North 17.3 mph 28.8 mph N/A   Overcast
2:44 PM 57.2 °F 50.0 °F 77% 30.15 in 6.2 mi North 17.3 mph 28.8 mph N/A   Overcast
2:55 PM 55.4 °F 50.0 °F 82% 30.15 in 6.2 mi North 18.4 mph - N/A   Mostly Cloudy
3:00 PM 55 °F 49 °F 76% 30.17 in 8 mi North 17.9 mph - -   Overcast
3:13 PM 57.2 °F 50.0 °F 77% 30.15 in 6.2 mi North 18.4 mph - N/A   Overcast
3:25 PM 57.2 °F 50.0 °F 77% 30.15 in 6.2 mi North 17.3 mph - N/A   Mostly Cloudy
3:49 PM 55.4 °F 50.0 °F 82% 30.15 in 6.2 mi North 21.9 mph 33.4 mph N/A   Overcast
3:55 PM 55.4 °F 50.0 °F 82% 30.15 in 6.2 mi North 21.9 mph 33.4 mph N/A   Overcast
4:00 PM 56 °F 50 °F 73% 30.18 in 7 mi North 17.9 mph - -   Overcast
4:25 PM 55.4 °F 48.2 °F 77% 30.18 in 6.2 mi North 19.6 mph - N/A   Overcast
4:32 PM 53.6 °F 50.0 °F 88% 30.18 in 6.2 mi North 20.7 mph - N/A   Overcast
4:55 PM 53.6 °F 48.2 °F 82% 30.18 in 6.2 mi North 17.3 mph 28.8 mph N/A   Overcast
5:00 PM 54 °F 49 °F 76% 30.19 in 7 mi North 20.1 mph - -   Partly Cloudy
5:25 PM 53.6 °F 48.2 °F 82% 30.18 in 6.2 mi North 17.3 mph 31.1 mph N/A   Overcast
5:55 PM 53.6 °F 48.2 °F 82% 30.18 in 6.2 mi North 21.9 mph - N/A   Overcast
6:00 PM 54 °F 48 °F 74% 30.19 in 7 mi North 17.9 mph - -   Overcast
6:02 PM 53.6 °F 48.2 °F 82% 30.18 in 6.2 mi North 17.3 mph - N/A   Overcast
6:11 PM 53.6 °F 48.2 °F 82% 30.18 in 6.2 mi North 17.3 mph - N/A   Overcast
6:25 PM 53.6 °F 46.4 °F 77% 30.18 in 6.2 mi North 18.4 mph - N/A   Overcast
6:34 PM 53.6 °F 46.4 °F 77% 30.18 in 6.2 mi North 20.7 mph 32.2 mph N/A   Partly Cloudy
6:38 PM 53.6 °F 46.4 °F 77% 30.18 in 6.2 mi North 20.7 mph - N/A   Partly Cloudy
6:45 PM 53.6 °F 46.4 °F 77% 30.18 in 6.2 mi North 18.4 mph 29.9 mph N/A   Scattered Clouds
6:55 PM 53.6 °F 46.4 °F 77% 30.18 in 6.2 mi North 16.1 mph 28.8 mph N/A   Scattered Clouds
7:00 PM 54 °F 46 °F 67% 30.19 in 7 mi North 17.9 mph - -   Partly Cloudy
7:16 PM 53.6 °F 46.4 °F 77% 30.18 in 6.2 mi North 18.4 mph - N/A   Unknown
7:25 PM 53.6 °F 46.4 °F 77% 30.18 in 6.2 mi North 18.4 mph 31.1 mph N/A   Scattered Clouds
7:48 PM 51.8 °F 46.4 °F 82% 30.18 in 6.2 mi North 18.4 mph 32.2 mph N/A   Mostly Cloudy
7:55 PM 51.8 °F 44.6 °F 76% 30.18 in 6.2 mi North 18.4 mph 32.2 mph N/A   Overcast
7:57 PM 51.8 °F 44.6 °F 76% 30.18 in 6.2 mi North 19.6 mph 31.1 mph N/A   Mostly Cloudy
8:04 PM 51.8 °F 44.6 °F 76% 30.18 in 6.2 mi North 19.6 mph - N/A   Partly Cloudy
8:08 PM 51.8 °F 44.6 °F 76% 30.18 in 6.2 mi North 18.4 mph - N/A   Scattered Clouds
8:25 PM 51.8 °F 44.6 °F 76% 30.18 in 6.2 mi North 17.3 mph - N/A   Scattered Clouds
8:27 PM 51.8 °F 44.6 °F 76% 30.18 in 6.2 mi North 18.4 mph - N/A   Scattered Clouds
8:31 PM 51.8 °F 44.6 °F 76% 30.18 in 6.2 mi North 18.4 mph - N/A   Partly Cloudy
8:38 PM 51.8 °F 44.6 °F 76% 30.18 in 6.2 mi North 17.3 mph - N/A   Scattered Clouds
8:45 PM 50.0 °F 44.6 °F 82% 30.18 in 6.2 mi North 18.4 mph 29.9 mph N/A   Partly Cloudy
8:55 PM 50.0 °F 44.6 °F 82% 30.18 in 6.2 mi North 16.1 mph 27.6 mph N/A   Partly Cloudy
9:00 PM 50 °F 44 °F 73% 30.21 in 7 mi North 17.9 mph - -   Partly Cloudy
9:13 PM 50.0 °F 44.6 °F 82% 30.21 in 6.2 mi North 17.3 mph 28.8 mph N/A   Scattered Clouds
9:25 PM 50.0 °F 44.6 °F 82% 30.21 in 6.2 mi North 17.3 mph - N/A   Overcast
9:27 PM 50.0 °F 44.6 °F 82% 30.21 in 6.2 mi North 16.1 mph - N/A   Overcast
9:34 PM 50.0 °F 44.6 °F 82% 30.21 in 6.2 mi North 16.1 mph - N/A   Mostly Cloudy
9:55 PM 50.0 °F 44.6 °F 82% 30.21 in 6.2 mi North 16.1 mph - N/A   Mostly Cloudy
10:00 PM 50 °F 44 °F 71% 30.23 in 7 mi North 15.7 mph - -   Overcast
10:02 PM 50.0 °F 42.8 °F 76% 30.21 in 6.2 mi North 17.3 mph 28.8 mph N/A   Overcast
10:15 PM 50.0 °F 42.8 °F 76% 30.21 in 6.2 mi North 16.1 mph - N/A   Overcast
10:25 PM 50.0 °F 44.6 °F 82% 30.21 in 6.2 mi North 17.3 mph - N/A   Mostly Cloudy
10:36 PM 50.0 °F 42.8 °F 76% 30.21 in 6.2 mi North 16.1 mph 28.8 mph N/A   Scattered Clouds
10:55 PM 50.0 °F 42.8 °F 76% 30.21 in 6.2 mi North 16.1 mph 27.6 mph N/A   Mostly Cloudy
11:00 PM 49 °F 43 °F 73% 30.24 in 9 mi North 13.4 mph - -   Partly Cloudy
11:12 PM 50.0 °F 42.8 °F 76% 30.21 in 6.2 mi North 18.4 mph - N/A   Partly Cloudy
11:18 PM 50.0 °F 42.8 °F 76% 30.21 in 6.2 mi North 17.3 mph 28.8 mph N/A   Scattered Clouds
11:25 PM 50.0 °F 42.8 °F 76% 30.21 in 6.2 mi North 15.0 mph - N/A   Scattered Clouds
11:55 PM 50.0 °F 42.8 °F 76% 30.24 in 6.2 mi North 13.8 mph 25.3 mph N/A   Mostly Cloudy